createdAt,value
2018-07-16T00:04:15.538Z,13.80
2018-07-16T00:09:19.006Z,13.80
2018-07-16T00:14:22.279Z,13.82
2018-07-16T00:19:25.525Z,13.75
2018-07-16T00:24:28.681Z,13.67
2018-07-16T00:29:31.906Z,13.57
2018-07-16T00:34:35.044Z,13.54
2018-07-16T00:39:38.243Z,13.45
2018-07-16T00:44:41.373Z,13.34
2018-07-16T00:49:44.554Z,13.27
2018-07-16T00:54:47.689Z,13.33
2018-07-16T00:59:50.832Z,13.31
2018-07-16T01:04:54.063Z,13.16
2018-07-16T01:09:57.199Z,13.10
2018-07-16T01:15:01.293Z,13.08
2018-07-16T01:20:04.483Z,12.98
2018-07-16T01:25:07.591Z,12.94
2018-07-16T01:30:10.742Z,12.92
2018-07-16T01:35:13.874Z,12.80
2018-07-16T01:40:17.013Z,12.75
2018-07-16T01:45:20.126Z,12.70
2018-07-16T01:50:23.335Z,12.67
2018-07-16T01:55:26.611Z,12.70
2018-07-16T02:00:29.799Z,12.67
2018-07-16T02:05:33.048Z,12.52
2018-07-16T02:10:36.162Z,12.46
2018-07-16T02:15:39.290Z,12.42
2018-07-16T02:20:42.394Z,12.32
2018-07-16T02:25:45.694Z,12.29
2018-07-16T02:30:48.809Z,12.20
2018-07-16T02:35:52.467Z,12.23
2018-07-16T02:40:55.728Z,12.37
2018-07-16T02:45:59.716Z,12.40
2018-07-16T02:51:02.913Z,12.27
2018-07-16T02:56:06.083Z,12.22
2018-07-16T03:01:09.290Z,12.16
2018-07-16T03:06:12.440Z,12.16
2018-07-16T03:11:15.648Z,12.12
2018-07-16T03:16:18.853Z,12.12
2018-07-16T03:21:22.044Z,12.13
2018-07-16T03:26:25.251Z,12.17
2018-07-16T03:31:28.363Z,12.18
2018-07-16T03:36:31.523Z,12.25
2018-07-16T03:41:34.665Z,12.39
2018-07-16T03:46:37.808Z,12.51
2018-07-16T03:51:40.933Z,12.63
2018-07-16T03:56:44.045Z,12.83
2018-07-16T04:01:47.285Z,12.96
2018-07-16T04:06:50.731Z,13.15
2018-07-16T04:11:54.067Z,13.40
2018-07-16T04:16:57.212Z,13.65
2018-07-16T04:22:00.335Z,13.86
2018-07-16T04:27:03.464Z,14.17
2018-07-16T04:32:06.592Z,14.59
2018-07-16T04:37:09.729Z,20.42
2018-07-16T04:42:12.859Z,25.31
2018-07-16T04:47:16.703Z,28.84
2018-07-16T04:52:19.915Z,30.23
2018-07-16T04:57:23.177Z,32.22
2018-07-16T05:02:27.662Z,32.52
2018-07-16T05:07:30.911Z,32.31
2018-07-16T05:12:49.680Z,33.62
2018-07-16T05:17:53.540Z,34.64
2018-07-16T05:22:56.920Z,34.49
2018-07-16T05:28:00.121Z,35.85
2018-07-16T05:33:03.335Z,35.85
2018-07-16T05:38:06.496Z,35.70
2018-07-16T05:43:09.608Z,37.39
2018-07-16T05:48:12.767Z,36.89
2018-07-16T05:53:15.994Z,35.34
2018-07-16T05:58:19.163Z,35.26
2018-07-16T06:03:22.364Z,34.97
2018-07-16T06:08:25.623Z,36.25
2018-07-16T06:13:29.019Z,36.43
2018-07-16T06:18:32.238Z,36.82
2018-07-16T06:23:35.426Z,36.42
2018-07-16T06:28:38.560Z,36.45
2018-07-16T06:33:41.756Z,38.90
2018-07-16T06:38:44.863Z,37.36
2018-07-16T06:43:48.151Z,37.27
2018-07-16T06:48:51.272Z,36.63
2018-07-16T06:53:54.529Z,38.52
2018-07-16T06:58:57.795Z,38.33
2018-07-16T07:04:00.965Z,39.35
2018-07-16T07:09:04.904Z,37.69
2018-07-16T07:14:08.097Z,35.84
2018-07-16T07:19:11.376Z,37.11
2018-07-16T07:24:14.605Z,37.42
2018-07-16T07:29:17.720Z,36.58
2018-07-16T07:34:20.907Z,37.14
2018-07-16T07:39:24.337Z,35.64
2018-07-16T07:44:27.675Z,37.67
2018-07-16T07:49:30.982Z,37.64
2018-07-16T07:54:34.200Z,38.25
2018-07-16T07:59:37.291Z,36.98
2018-07-16T08:04:40.436Z,36.44
2018-07-16T08:09:43.591Z,36.22
2018-07-16T08:14:46.867Z,36.12
2018-07-16T08:19:50.015Z,35.95
2018-07-16T08:24:53.263Z,37.03
2018-07-16T08:29:56.495Z,35.82
2018-07-16T08:34:59.634Z,36.37
2018-07-16T08:40:02.797Z,35.56
2018-07-16T08:45:06.071Z,34.73
2018-07-16T08:50:09.213Z,36.75
2018-07-16T08:55:12.441Z,36.36
2018-07-16T09:00:15.649Z,36.02
2018-07-16T09:05:18.824Z,34.76
2018-07-16T09:10:23.007Z,36.56
2018-07-16T09:15:27.133Z,36.09
2018-07-16T09:20:30.284Z,36.67
2018-07-16T09:25:33.486Z,34.24
2018-07-16T09:30:36.651Z,34.32
2018-07-16T09:35:39.872Z,34.08
2018-07-16T09:40:43.036Z,35.78
2018-07-16T09:45:46.276Z,35.29
2018-07-16T09:50:49.651Z,35.58
2018-07-16T09:55:52.855Z,35.45
2018-07-16T10:00:56.055Z,34.98
2018-07-16T10:05:59.205Z,34.40
2018-07-16T10:11:02.346Z,34.73
2018-07-16T10:16:05.624Z,35.03
2018-07-16T10:21:08.740Z,34.19
2018-07-16T10:26:11.939Z,33.20
2018-07-16T10:31:15.139Z,33.31
2018-07-16T10:36:18.251Z,31.19
2018-07-16T10:41:21.454Z,31.72
2018-07-16T10:46:24.735Z,32.21
2018-07-16T10:51:27.972Z,32.58
2018-07-16T10:56:31.095Z,31.75
2018-07-16T11:01:34.878Z,31.96
2018-07-16T11:06:38.131Z,33.02
2018-07-16T11:11:41.310Z,32.55
2018-07-16T11:16:44.454Z,31.66
2018-07-16T11:21:47.888Z,31.44
2018-07-16T11:26:51.756Z,32.03
2018-07-16T11:31:55.087Z,31.47
2018-07-16T11:36:58.472Z,31.65
2018-07-16T11:42:01.699Z,31.40
2018-07-16T11:47:04.917Z,31.74
2018-07-16T11:52:08.151Z,31.75
2018-07-16T11:57:11.261Z,31.74
2018-07-16T12:02:14.435Z,31.63
2018-07-16T12:07:17.572Z,31.71
2018-07-16T12:12:20.910Z,31.50
2018-07-16T12:17:24.031Z,31.71
2018-07-16T12:22:27.327Z,31.35
2018-07-16T12:27:32.726Z,31.01
2018-07-16T12:32:35.808Z,32.04
2018-07-16T12:37:38.974Z,31.21
2018-07-16T12:42:42.127Z,32.14
2018-07-16T12:47:45.344Z,32.22
2018-07-16T12:52:48.487Z,31.87
2018-07-16T12:57:51.764Z,32.79
2018-07-16T13:02:55.091Z,32.54
2018-07-16T13:07:59.227Z,32.49
2018-07-16T13:13:02.403Z,32.38
2018-07-16T13:18:05.575Z,30.36
2018-07-16T13:23:08.691Z,28.97
2018-07-16T13:28:11.794Z,28.48
2018-07-16T13:33:15.010Z,28.41
2018-07-16T13:38:18.115Z,29.94
2018-07-16T13:43:21.357Z,30.85
2018-07-16T13:48:24.501Z,30.25
2018-07-16T13:53:27.689Z,29.33
2018-07-16T13:58:30.813Z,30.54
2018-07-16T14:03:33.946Z,31.75
2018-07-16T14:08:37.080Z,30.74
2018-07-16T14:13:40.274Z,29.49
2018-07-16T14:18:43.445Z,29.93
2018-07-16T14:23:46.624Z,28.37
2018-07-16T14:28:49.776Z,28.37
2018-07-16T14:33:53.164Z,30.35
2018-07-16T14:38:56.394Z,30.84
2018-07-16T14:43:59.686Z,30.65
2018-07-16T14:49:02.794Z,31.16
2018-07-16T14:54:05.988Z,31.73
2018-07-16T14:59:09.177Z,31.67
2018-07-16T15:04:12.326Z,32.18
2018-07-16T15:09:15.466Z,33.14
2018-07-16T15:14:18.567Z,32.81
2018-07-16T15:19:21.768Z,31.20
2018-07-16T15:24:25.026Z,32.24
2018-07-16T15:29:28.264Z,32.34
2018-07-16T15:34:31.889Z,32.39
2018-07-16T15:39:35.161Z,31.00
2018-07-16T15:44:38.239Z,30.59
2018-07-16T15:49:41.379Z,30.87
2018-07-16T15:54:44.506Z,31.42
2018-07-16T15:59:47.662Z,31.80
2018-07-16T16:04:50.925Z,31.67
2018-07-16T16:09:54.250Z,31.02
2018-07-16T16:14:57.483Z,30.53
2018-07-16T16:20:00.962Z,31.04
2018-07-16T16:25:04.314Z,31.92
2018-07-16T16:30:07.446Z,32.65
2018-07-16T16:35:10.625Z,32.01
2018-07-16T16:40:14.596Z,31.26
2018-07-16T16:45:17.858Z,31.06
2018-07-16T16:50:21.032Z,29.78
2018-07-16T16:55:24.289Z,29.99
2018-07-16T17:00:27.565Z,29.47
2018-07-16T17:05:30.799Z,28.51
2018-07-16T17:10:33.968Z,28.24
2018-07-16T17:15:37.464Z,27.50
2018-07-16T17:20:40.605Z,27.01
2018-07-16T17:25:43.785Z,26.67
2018-07-16T17:30:46.887Z,26.48
2018-07-16T17:35:50.143Z,26.48
2018-07-16T17:40:53.593Z,26.28
2018-07-16T17:45:56.891Z,26.18
2018-07-16T17:51:00.040Z,26.67
2018-07-16T17:56:03.367Z,27.20
2018-07-16T18:01:06.958Z,27.90
2018-07-16T18:06:10.047Z,27.99
2018-07-16T18:11:13.189Z,28.06
2018-07-16T18:16:16.324Z,28.05
2018-07-16T18:21:19.530Z,27.81
2018-07-16T18:26:23.415Z,27.54
2018-07-16T18:31:26.744Z,27.21
2018-07-16T18:36:29.942Z,26.71
2018-07-16T18:41:33.144Z,25.97
2018-07-16T18:46:36.260Z,25.39
2018-07-16T19:10:40.023Z,24.81
2018-07-16T19:17:50.339Z,22.82
2018-07-16T19:22:55.357Z,22.48
2018-07-16T19:28:00.456Z,22.13
2018-07-16T19:33:04.321Z,21.77
2018-07-16T19:38:07.606Z,21.52
2018-07-16T19:43:13.338Z,21.28
2018-07-16T19:48:16.725Z,21.18
2018-07-16T19:53:19.912Z,21.11
2018-07-16T19:58:23.690Z,21.10
2018-07-16T20:03:26.959Z,21.15
2018-07-16T20:08:32.632Z,21.26
2018-07-16T20:13:37.778Z,21.44
2018-07-16T20:18:40.961Z,21.47
2018-07-16T20:23:44.528Z,21.28
2018-07-16T20:28:47.668Z,21.16
2018-07-16T20:33:50.931Z,21.03
2018-07-16T20:38:54.306Z,20.88
2018-07-16T20:43:57.699Z,20.78
2018-07-16T20:49:01.031Z,20.49
2018-07-16T20:54:05.119Z,20.30
2018-07-16T20:59:08.301Z,20.30
2018-07-16T21:04:11.475Z,20.21
2018-07-16T21:09:14.602Z,20.02
2018-07-16T21:14:17.681Z,19.71
2018-07-16T21:19:20.877Z,19.48
2018-07-16T21:24:24.178Z,19.28
2018-07-16T21:29:28.181Z,19.20
2018-07-16T21:34:32.104Z,18.98
2018-07-16T21:39:35.437Z,18.85
2018-07-16T21:44:38.873Z,18.80
2018-07-16T21:49:42.294Z,18.66
2018-07-16T21:54:45.396Z,18.40
2018-07-16T21:59:48.691Z,18.33
2018-07-16T22:04:52.257Z,18.10
2018-07-16T22:09:55.444Z,18.10
2018-07-16T22:14:58.559Z,17.98
2018-07-16T22:20:08.153Z,17.90
2018-07-16T22:25:11.536Z,17.79
2018-07-16T22:30:14.934Z,17.67
2018-07-16T22:35:18.182Z,17.61
2018-07-16T22:40:21.337Z,17.51
2018-07-16T22:45:24.614Z,17.40
2018-07-16T22:50:27.750Z,17.24
2018-07-16T22:55:30.905Z,17.18
2018-07-16T23:00:34.042Z,17.28
2018-07-16T23:05:37.259Z,17.32
2018-07-16T23:10:40.425Z,17.25
2018-07-16T23:15:44.052Z,17.15
2018-07-16T23:20:47.290Z,17.07
2018-07-16T23:25:50.605Z,16.91
2018-07-16T23:30:53.712Z,16.87
2018-07-16T23:35:56.890Z,16.75
2018-07-16T23:41:00.056Z,16.70
2018-07-16T23:46:03.391Z,16.61
2018-07-16T23:51:06.593Z,16.53
2018-07-16T23:56:09.746Z,16.49
